Time;durP1;ratioP1;P1;durP2;ratioP2;P2;SDS_P1;SDS_P2;PMS_P1;PMS_P2;Temp;Humidity;BMP_temperature;BMP_pressure;BME280_temperature;BME280_humidity;BME280_pressure;Samples;Min_cycle;Max_cycle;Signal;HPM_P1;HPM_P2
2022/05/15 00:01:34;;;;;;;5.53;4.47;;;;;;;13.87;71.83;98377.63;5053813;28;20184;-71
2022/05/15 00:04:01;;;;;;;5.67;4.33;;;;;;;13.82;70.86;98381.00;5053913;28;20291;-72
2022/05/15 00:06:27;;;;;;;5.30;4.47;;;;;;;13.76;70.56;98373.94;5053549;28;20201;-72
2022/05/15 00:08:54;;;;;;;7.63;5.07;;;;;;;13.77;70.67;98366.72;5053432;28;20233;-71
2022/05/15 00:11:20;;;;;;;5.90;4.20;;;;;;;13.76;70.87;98363.25;5053435;28;20217;-72
2022/05/15 00:13:48;;;;;;;6.53;4.47;;;;;;;13.75;72.67;98369.59;5053739;28;20219;-71
2022/05/15 00:16:16;;;;;;;6.40;4.80;;;;;;;13.72;72.87;98359.41;5053647;28;20232;-72
2022/05/15 00:18:43;;;;;;;9.67;5.23;;;;;;;13.71;72.73;98356.94;5053637;28;20582;-71
2022/05/15 00:21:10;;;;;;;6.53;4.57;;;;;;;13.63;73.18;98358.13;5053596;28;20206;-72
2022/05/15 00:23:37;;;;;;;5.80;4.70;;;;;;;13.48;73.77;98349.72;5053588;28;20209;-71
2022/05/15 00:26:03;;;;;;;6.40;4.70;;;;;;;13.64;71.90;98358.91;5053251;28;20762;-71
2022/05/15 00:28:30;;;;;;;8.20;4.67;;;;;;;13.64;72.21;98351.72;5053443;28;20264;-72
2022/05/15 00:30:56;;;;;;;5.93;4.43;;;;;;;13.61;72.78;98354.84;5053510;28;20208;-71
2022/05/15 00:33:23;;;;;;;6.93;4.67;;;;;;;13.66;72.28;98365.66;5053508;28;20218;-72
2022/05/15 00:35:49;;;;;;;6.33;4.60;;;;;;;13.67;73.51;98361.13;5053373;28;20252;-71
2022/05/15 00:38:15;;;;;;;8.27;4.80;;;;;;;13.57;74.12;98355.53;5052953;28;20251;-71
2022/05/15 00:40:44;;;;;;;5.37;4.20;;;;;;;13.61;73.64;98362.06;5052640;28;20671;-72
2022/05/15 00:43:13;;;;;;;6.70;4.17;;;;;;;13.56;74.09;98349.38;5053118;28;20219;-71
2022/05/15 00:45:40;;;;;;;5.93;4.30;;;;;;;13.49;73.92;98351.34;5053438;28;20197;-71
2022/05/15 00:48:06;;;;;;;5.70;3.67;;;;;;;13.45;74.19;98352.03;5053306;28;20323;-71
2022/05/15 00:50:37;;;;;;;5.93;4.07;;;;;;;13.44;73.55;98355.75;5053384;28;20226;-72
2022/05/15 00:53:08;;;;;;;7.70;3.90;;;;;;;13.30;74.57;98349.78;5053261;28;20196;-71
2022/05/15 00:55:47;;;;;;;5.67;3.93;;;;;;;13.30;74.26;98349.00;5053764;28;20220;-72
2022/05/15 00:58:20;;;;;;;4.83;3.60;;;;;;;13.21;74.58;98345.03;5053255;28;20235;-72
2022/05/15 01:00:46;;;;;;;6.80;3.97;;;;;;;13.30;74.96;98344.44;5053800;28;20204;-71
2022/05/15 01:03:16;;;;;;;5.67;4.13;;;;;;;13.20;75.70;98352.22;5052893;28;20207;-71
2022/05/15 01:05:46;;;;;;;6.80;3.87;;;;;;;13.22;75.27;98344.81;5053328;28;20208;-72
2022/05/15 01:08:13;;;;;;;6.87;4.00;;;;;;;13.08;76.21;98340.69;5053629;28;20219;-71
2022/05/15 01:10:43;;;;;;;7.77;4.20;;;;;;;12.98;76.63;98337.75;5053172;28;20215;-72
2022/05/15 01:13:10;;;;;;;8.33;4.13;;;;;;;13.02;76.34;98341.59;5053129;28;20212;-72
2022/05/15 01:15:37;;;;;;;4.30;3.87;;;;;;;13.04;76.86;98330.69;5053013;28;20231;-72
2022/05/15 01:18:05;;;;;;;6.73;3.93;;;;;;;13.02;77.00;98336.25;5052996;28;20230;-72
2022/05/15 01:20:32;;;;;;;7.23;4.13;;;;;;;12.96;78.39;98342.47;5052770;28;20212;-71
2022/05/15 01:23:00;;;;;;;7.40;4.10;;;;;;;13.05;76.40;98346.47;5052714;28;20220;-71
2022/05/15 01:25:30;;;;;;;4.40;4.00;;;;;;;13.01;77.05;98339.97;5052984;28;20574;-71
2022/05/15 01:28:08;;;;;;;4.53;3.70;;;;;;;13.05;77.22;98340.31;5052924;28;20223;-71
2022/05/15 01:30:37;;;;;;;6.23;4.30;;;;;;;12.98;78.04;98336.94;5053040;28;20194;-71
2022/05/15 01:33:03;;;;;;;6.53;4.13;;;;;;;12.94;77.17;98330.41;5052891;28;20215;-72
2022/05/15 01:35:30;;;;;;;5.33;4.20;;;;;;;12.91;78.81;98336.19;5052522;28;20698;-71
2022/05/15 01:37:57;;;;;;;6.20;4.30;;;;;;;12.88;78.73;98334.78;5052464;28;20235;-71
2022/05/15 01:40:23;;;;;;;6.47;4.20;;;;;;;12.89;79.06;98331.06;5052915;28;20229;-71
2022/05/15 01:42:49;;;;;;;4.87;4.17;;;;;;;12.79;79.68;98338.00;5052872;28;20201;-71
2022/05/15 01:45:17;;;;;;;6.70;4.87;;;;;;;12.72;79.85;98332.75;5052857;28;20199;-71
2022/05/15 01:47:44;;;;;;;4.53;4.10;;;;;;;12.72;80.72;98346.09;5052786;28;20232;-71
2022/05/15 01:50:12;;;;;;;5.03;4.53;;;;;;;12.72;80.19;98332.75;5053358;28;20211;-71
2022/05/15 01:52:38;;;;;;;5.83;4.90;;;;;;;12.72;79.55;98338.09;5056073;28;20674;-71
2022/05/15 01:55:05;;;;;;;4.97;3.90;;;;;;;12.64;80.13;98342.91;5056735;28;20218;-71
2022/05/15 01:57:32;;;;;;;5.53;4.10;;;;;;;12.62;80.21;98340.47;5056190;28;20237;-71
2022/05/15 01:59:58;;;;;;;6.73;4.17;;;;;;;12.63;80.25;98341.28;5056457;28;20202;-71
2022/05/15 02:02:24;;;;;;;5.43;3.90;;;;;;;12.65;78.85;98332.03;5056195;28;20206;-71
2022/05/15 02:04:51;;;;;;;7.83;4.33;;;;;;;12.61;77.83;98336.16;5056176;28;20205;-71
2022/05/15 02:07:17;;;;;;;5.33;3.97;;;;;;;12.58;79.40;98328.63;5056083;28;20248;-71
2022/05/15 02:09:44;;;;;;;6.03;3.70;;;;;;;12.50;79.33;98338.78;5055655;28;20704;-72
2022/05/15 02:12:11;;;;;;;8.00;3.60;;;;;;;12.44;80.37;98331.69;5056011;28;20190;-71
2022/05/15 02:14:37;;;;;;;4.67;3.47;;;;;;;12.46;78.67;98342.94;5055968;28;20218;-71
2022/05/15 02:17:04;;;;;;;5.13;3.70;;;;;;;12.49;78.15;98332.66;5055753;28;20232;-71
2022/05/15 02:19:30;;;;;;;5.13;3.20;;;;;;;12.50;77.40;98325.44;5055923;28;20201;-71
2022/05/15 02:21:56;;;;;;;7.37;3.50;;;;;;;12.44;78.09;98324.47;5055870;28;20209;-71
2022/05/15 02:24:23;;;;;;;4.63;3.23;;;;;;;12.41;78.38;98326.78;5055801;28;20217;-71
2022/05/15 02:26:49;;;;;;;5.60;3.70;;;;;;;12.34;78.88;98326.06;5055348;28;20203;-71
2022/05/15 02:29:16;;;;;;;5.43;3.60;;;;;;;12.29;78.49;98329.38;5055298;28;20744;-71
2022/05/15 02:31:42;;;;;;;4.37;3.50;;;;;;;12.31;79.53;98329.16;5055638;28;20219;-71
2022/05/15 02:34:09;;;;;;;4.97;3.90;;;;;;;12.29;78.69;98336.59;5055604;28;20210;-71
2022/05/15 02:36:35;;;;;;;5.30;3.40;;;;;;;12.28;78.88;98325.09;5055486;28;20225;-71
2022/05/15 02:39:02;;;;;;;5.27;4.00;;;;;;;12.25;79.24;98330.88;5055475;28;20240;-71
2022/05/15 02:41:28;;;;;;;4.27;3.47;;;;;;;12.29;79.64;98344.59;5055481;28;20209;-71
2022/05/15 02:43:55;;;;;;;3.83;3.13;;;;;;;12.34;79.22;98337.53;5055416;28;20255;-71
2022/05/15 02:46:21;;;;;;;5.23;3.77;;;;;;;12.17;80.64;98338.34;5055389;28;20208;-71
2022/05/15 02:51:31;;;;;;;6.40;3.80;;;;;;;12.14;83.06;98334.28;5055158;28;20216;-71
2022/05/15 02:53:58;;;;;;;5.93;3.50;;;;;;;12.11;81.05;98328.59;5054940;28;20212;-71
2022/05/15 02:56:31;;;;;;;4.93;3.63;;;;;;;12.10;81.74;98332.28;5055132;28;20225;-71
2022/05/15 02:58:58;;;;;;;6.03;4.00;;;;;;;11.99;81.67;98333.03;5055106;28;20225;-71
2022/05/15 03:01:25;;;;;;;5.03;3.70;;;;;;;12.01;81.81;98330.94;5054540;28;20210;-71
2022/05/15 03:03:52;;;;;;;4.40;3.50;;;;;;;12.05;82.53;98327.63;5054647;28;20214;-71
2022/05/15 03:06:20;;;;;;;4.57;3.60;;;;;;;12.00;81.67;98322.16;5054925;28;20204;-71
2022/05/15 03:08:49;;;;;;;7.20;4.03;;;;;;;11.94;81.38;98325.66;5054872;28;20226;-71
2022/05/15 03:11:16;;;;;;;5.17;3.57;;;;;;;11.99;82.28;98319.69;5054499;28;20702;-71
2022/05/15 03:13:43;;;;;;;8.10;3.50;;;;;;;11.86;83.24;98325.97;5054798;28;20213;-71
2022/05/15 03:16:10;;;;;;;4.37;3.37;;;;;;;11.92;82.27;98321.59;5054611;28;20225;-71
2022/05/15 03:18:44;;;;;;;4.03;3.67;;;;;;;11.89;82.00;98324.72;5054607;28;20225;-71
2022/05/15 03:21:13;;;;;;;6.10;3.93;;;;;;;11.90;81.15;98329.84;5054954;28;20201;-71
2022/05/15 03:23:39;;;;;;;4.90;3.40;;;;;;;11.87;82.01;98335.59;5054360;28;20217;-71
2022/05/15 03:26:06;;;;;;;6.47;3.53;;;;;;;11.88;80.72;98328.41;5054467;28;20216;-71
2022/05/15 03:28:32;;;;;;;5.83;3.37;;;;;;;11.92;80.43;98330.41;5054067;28;20707;-72
2022/05/15 03:30:59;;;;;;;4.53;3.43;;;;;;;11.93;80.25;98328.59;5054441;28;20224;-71
2022/05/15 03:33:25;;;;;;;5.23;3.10;;;;;;;11.99;80.78;98330.34;5053964;28;20382;-71
2022/05/15 03:35:51;;;;;;;4.87;3.30;;;;;;;11.88;80.77;98323.91;5053894;28;20220;-71
2022/05/15 03:38:18;;;;;;;5.07;3.17;;;;;;;11.90;81.69;98327.19;5054154;28;20233;-71
2022/05/15 03:40:44;;;;;;;4.40;3.67;;;;;;;11.89;81.13;98344.16;5054528;28;20274;-71
2022/05/15 03:43:11;;;;;;;4.87;3.40;;;;;;;11.81;80.82;98333.00;5054110;28;20312;-71
2022/05/15 03:45:37;;;;;;;3.63;3.30;;;;;;;11.82;81.07;98332.78;5053889;28;20213;-71
2022/05/15 03:48:04;;;;;;;4.83;3.43;;;;;;;11.78;81.14;98338.75;5054176;28;20229;-71
2022/05/15 03:50:31;;;;;;;4.03;3.63;;;;;;;11.69;82.10;98343.56;5054013;28;20232;-71
2022/05/15 03:52:57;;;;;;;6.23;3.67;;;;;;;11.75;82.74;98349.88;5053537;28;20209;-71
2022/05/15 03:55:23;;;;;;;3.60;3.30;;;;;;;11.72;82.37;98347.63;5053852;28;20205;-71
2022/05/15 03:57:55;;;;;;;4.30;3.43;;;;;;;11.79;82.35;98346.53;5053344;28;20688;-71
2022/05/15 04:00:22;;;;;;;5.63;3.43;;;;;;;11.82;82.97;98353.25;5053833;28;20224;-71
2022/05/15 04:02:49;;;;;;;3.83;3.43;;;;;;;11.85;81.34;98348.31;5053668;28;20279;-71
2022/05/15 04:05:15;;;;;;;3.37;3.07;;;;;;;11.88;81.56;98345.22;5053762;28;20208;-71
2022/05/15 04:07:46;;;;;;;4.43;3.30;;;;;;;11.87;81.46;98343.59;5053528;28;20221;-71
2022/05/15 04:10:13;;;;;;;4.40;3.53;;;;;;;11.79;82.23;98346.53;5053268;28;20209;-71
2022/05/15 04:12:40;;;;;;;4.13;3.50;;;;;;;11.82;82.66;98347.94;5053590;28;20196;-71
2022/05/15 04:15:06;;;;;;;5.10;3.60;;;;;;;11.81;82.72;98343.66;5054098;28;20213;-71
2022/05/15 04:17:33;;;;;;;7.17;4.10;;;;;;;11.80;82.76;98353.47;5053302;28;20244;-71
2022/05/15 04:20:05;;;;;;;7.73;3.77;;;;;;;11.82;82.67;98346.09;5053131;28;20605;-71
2022/05/15 04:22:31;;;;;;;5.73;3.70;;;;;;;11.86;82.49;98343.81;5053551;28;20212;-71
2022/05/15 04:24:57;;;;;;;3.63;3.27;;;;;;;11.87;83.59;98348.09;5053630;28;20201;-71
2022/05/15 04:27:24;;;;;;;5.10;3.63;;;;;;;11.92;83.05;98348.25;5053562;28;20221;-71
2022/05/15 04:29:51;;;;;;;4.37;3.43;;;;;;;11.90;83.38;98351.16;5053595;28;20205;-71
2022/05/15 04:32:17;;;;;;;5.73;3.57;;;;;;;11.93;83.40;98350.69;5053563;28;20201;-71
2022/05/15 04:34:44;;;;;;;3.83;3.23;;;;;;;11.94;83.18;98351.53;5053595;28;20205;-71
2022/05/15 04:37:10;;;;;;;5.03;3.70;;;;;;;12.00;82.67;98359.44;5053243;28;20221;-71
2022/05/15 04:39:37;;;;;;;6.40;4.23;;;;;;;12.05;83.32;98353.44;5053339;28;20209;-71
2022/05/15 04:42:04;;;;;;;4.70;3.77;;;;;;;12.20;82.85;98351.25;5053406;28;20263;-71
2022/05/15 04:44:30;;;;;;;5.23;3.60;;;;;;;12.19;83.83;98354.94;5053428;28;20201;-71
2022/05/15 04:46:56;;;;;;;4.47;3.90;;;;;;;12.15;82.97;98349.25;5053312;28;20208;-71
2022/05/15 04:49:23;;;;;;;5.63;3.63;;;;;;;12.25;82.56;98360.19;5053316;28;20220;-71
2022/05/15 04:51:49;;;;;;;4.20;3.33;;;;;;;12.35;83.80;98352.47;5053196;28;20208;-71
2022/05/15 04:54:16;;;;;;;4.17;3.33;;;;;;;12.45;82.98;98355.47;5054041;28;20304;-71
2022/05/15 04:56:42;;;;;;;6.60;3.40;;;;;;;12.92;80.99;98353.81;5053130;28;20225;-71
2022/05/15 04:59:09;;;;;;;6.43;3.50;;;;;;;13.67;76.92;98351.25;5053147;28;20222;-72
2022/05/15 05:01:35;;;;;;;3.77;3.37;;;;;;;14.25;74.44;98349.41;5053145;28;20207;-71
2022/05/15 05:04:02;;;;;;;3.80;3.40;;;;;;;14.64;71.23;98356.66;5053192;28;20216;-72
2022/05/15 05:06:29;;;;;;;4.77;3.37;;;;;;;14.88;69.99;98347.47;5052865;28;20684;-71
2022/05/15 05:08:56;;;;;;;4.60;3.60;;;;;;;14.90;68.45;98348.06;5052732;28;20225;-71
2022/05/15 05:11:22;;;;;;;3.80;3.20;;;;;;;15.28;66.50;98355.47;5052640;28;20591;-71
2022/05/15 05:13:49;;;;;;;3.53;3.10;;;;;;;15.13;67.61;98357.84;5052557;28;20216;-71
2022/05/15 05:16:16;;;;;;;5.73;3.67;;;;;;;14.81;68.22;98354.03;5052833;28;20237;-72
2022/05/15 05:18:43;;;;;;;3.27;2.97;;;;;;;14.64;68.69;98362.00;5052978;28;20236;-71
2022/05/15 05:21:09;;;;;;;6.97;3.63;;;;;;;14.13;69.34;98363.81;5052987;28;20201;-71
2022/05/15 05:23:35;;;;;;;3.80;3.37;;;;;;;14.08;70.92;98366.38;5053064;28;20212;-71
2022/05/15 05:26:02;;;;;;;6.20;3.50;;;;;;;14.13;72.45;98371.81;5055085;28;20209;-71
2022/05/15 05:28:29;;;;;;;5.73;3.63;;;;;;;14.20;73.69;98375.22;5056826;28;20228;-71
2022/05/15 05:30:55;;;;;;;6.53;3.50;;;;;;;14.15;72.94;98375.88;5056826;28;20201;-71
2022/05/15 05:33:22;;;;;;;3.53;3.23;;;;;;;14.07;72.19;98378.91;5057222;28;20215;-71
2022/05/15 05:35:49;;;;;;;3.60;3.30;;;;;;;14.51;71.06;98381.00;5056703;28;20212;-71
2022/05/15 05:38:16;;;;;;;5.93;3.90;;;;;;;14.35;69.64;98383.59;5056970;28;20233;-72
2022/05/15 05:40:42;;;;;;;3.83;3.43;;;;;;;14.44;71.55;98385.69;5056572;28;20201;-71
2022/05/15 05:43:09;;;;;;;5.27;3.40;;;;;;;14.64;68.63;98385.25;5056459;28;20210;-71
2022/05/15 05:45:36;;;;;;;4.37;3.70;;;;;;;14.60;69.31;98378.78;5056127;28;20668;-72
2022/05/15 05:48:03;;;;;;;7.87;3.40;;;;;;;14.56;68.42;98369.59;5055991;28;20229;-71
2022/05/15 05:50:30;;;;;;;5.20;3.37;;;;;;;14.69;70.62;98383.50;5056048;28;20579;-72
2022/05/15 05:52:57;;;;;;;6.33;3.50;;;;;;;14.63;69.75;98381.78;5056060;28;20209;-71
2022/05/15 05:55:25;;;;;;;5.93;3.50;;;;;;;14.74;68.66;98377.47;5056060;28;20217;-72
2022/05/15 05:57:52;;;;;;;6.43;3.33;;;;;;;14.78;68.96;98376.72;5056158;28;20235;-72
2022/05/15 06:00:24;;;;;;;6.07;3.30;;;;;;;14.80;65.84;98363.94;5055956;28;20217;-71
2022/05/15 06:02:51;;;;;;;5.43;3.40;;;;;;;14.73;67.56;98371.28;5056212;28;20208;-71
2022/05/15 06:05:17;;;;;;;4.60;3.23;;;;;;;14.89;69.13;98377.75;5056172;28;20216;-72
2022/05/15 06:07:44;;;;;;;5.33;3.50;;;;;;;14.93;67.56;98374.34;5055937;28;20221;-72
2022/05/15 06:10:13;;;;;;;4.27;3.37;;;;;;;15.01;68.04;98365.94;5055780;28;20213;-71
2022/05/15 06:12:40;;;;;;;3.83;3.00;;;;;;;15.08;69.79;98371.97;5056385;28;20209;-71
2022/05/15 06:15:08;;;;;;;6.07;3.20;;;;;;;15.15;68.55;98372.63;5055912;28;20217;-71
2022/05/15 06:17:35;;;;;;;3.37;3.00;;;;;;;15.41;67.30;98372.06;5055613;28;20233;-71
2022/05/15 06:20:08;;;;;;;6.47;3.60;;;;;;;15.33;66.48;98369.75;5055504;28;20719;-71
2022/05/15 06:22:35;;;;;;;3.77;3.13;;;;;;;15.58;64.15;98372.91;5055731;28;20194;-71
2022/05/15 06:25:01;;;;;;;3.87;2.90;;;;;;;15.39;65.81;98365.31;5055577;28;20207;-71
2022/05/15 06:27:28;;;;;;;4.47;3.33;;;;;;;15.68;66.34;98367.69;5055685;28;20217;-71
2022/05/15 06:29:57;;;;;;;4.00;3.60;;;;;;;15.51;67.10;98372.22;5055604;28;20227;-71
2022/05/15 06:32:24;;;;;;;5.50;3.63;;;;;;;15.69;64.81;98371.19;5055670;28;20208;-71
2022/05/15 06:34:50;;;;;;;4.20;3.07;;;;;;;15.98;63.39;98372.72;5055238;28;20211;-71
2022/05/15 06:37:17;;;;;;;5.67;3.60;;;;;;;15.92;65.17;98362.97;5055063;28;20723;-71
2022/05/15 06:39:43;;;;;;;5.13;3.50;;;;;;;16.02;64.81;98369.28;5055274;28;20206;-71
2022/05/15 06:42:10;;;;;;;3.90;3.50;;;;;;;15.96;63.75;98366.81;5055977;28;20209;-72
2022/05/15 06:44:36;;;;;;;8.43;3.80;;;;;;;15.99;62.63;98368.97;5037402;28;20212;-72
2022/05/15 06:47:03;;;;;;;6.03;3.00;;;;;;;16.00;62.60;98367.91;5054979;28;20664;-71
2022/05/15 06:49:29;;;;;;;5.60;3.00;;;;;;;15.98;58.29;98368.19;5055318;28;20284;-71
2022/05/15 06:51:55;;;;;;;6.27;2.90;;;;;;;16.18;60.19;98370.31;5055227;28;20205;-71
2022/05/15 06:54:22;;;;;;;4.43;3.00;;;;;;;16.01;60.47;98370.34;5055214;28;20224;-71
2022/05/15 06:59:34;;;;;;;4.33;2.97;;;;;;;16.29;60.62;98378.28;5029745;28;20205;-71
2022/05/15 07:02:02;;;;;;;4.40;2.90;;;;;;;16.26;59.91;98377.97;5054752;28;20209;-71
2022/05/15 07:04:28;;;;;;;6.33;2.80;;;;;;;16.33;58.32;98371.34;5054533;28;20205;-72
2022/05/15 07:06:54;;;;;;;5.30;2.87;;;;;;;16.46;59.31;98370.22;5054696;28;20201;-71
2022/05/15 07:09:21;;;;;;;5.30;3.03;;;;;;;16.64;58.40;98365.34;5054459;28;20296;-71
2022/05/15 07:11:47;;;;;;;4.77;2.43;;;;;;;16.58;58.66;98363.69;5054441;28;20221;-72
2022/05/15 07:14:14;;;;;;;4.10;2.77;;;;;;;16.83;59.57;98372.03;5054816;28;20227;-71
2022/05/15 07:16:40;;;;;;;3.83;2.40;;;;;;;16.81;58.94;98370.66;5054606;28;20228;-71
2022/05/15 07:19:07;;;;;;;5.03;2.60;;;;;;;17.06;58.79;98363.69;5054320;28;20263;-72
2022/05/15 07:21:34;;;;;;;5.47;2.63;;;;;;;17.21;56.72;98366.56;5055048;28;20216;-72
2022/05/15 07:24:00;;;;;;;5.77;2.53;;;;;;;17.32;57.15;98362.88;5054510;28;20216;-72
2022/05/15 07:26:26;;;;;;;4.03;2.80;;;;;;;17.19;56.25;98362.50;5054513;28;20296;-72
2022/05/15 07:28:53;;;;;;;4.23;2.30;;;;;;;17.49;56.53;98358.25;5054232;28;20237;-71
2022/05/15 07:31:21;;;;;;;2.43;2.20;;;;;;;17.36;56.13;98360.50;5054462;28;20201;-72
2022/05/15 07:33:49;;;;;;;4.33;2.20;;;;;;;17.56;57.53;98363.41;5054817;28;20205;-72
2022/05/15 07:36:16;;;;;;;4.37;2.00;;;;;;;17.81;56.53;98359.06;5054408;28;20209;-72
2022/05/15 07:38:43;;;;;;;6.47;2.27;;;;;;;17.83;56.71;98356.13;5054080;28;20229;-72
2022/05/15 07:41:10;;;;;;;4.07;2.33;;;;;;;17.92;55.18;98354.56;5053794;28;20216;-72
2022/05/15 07:43:36;;;;;;;3.30;1.83;;;;;;;17.88;54.07;98356.97;5053869;28;20568;-72
2022/05/15 07:46:03;;;;;;;4.17;2.33;;;;;;;17.84;53.92;98353.16;5053859;28;20209;-72
2022/05/15 07:48:30;;;;;;;4.17;2.10;;;;;;;18.13;55.09;98356.31;5053298;28;20225;-72
2022/05/15 07:50:57;;;;;;;3.10;2.13;;;;;;;18.36;53.23;98356.75;5054067;28;20201;-72
2022/05/15 07:53:23;;;;;;;2.60;1.90;;;;;;;18.42;53.29;98350.31;5053916;28;20219;-72
2022/05/15 07:55:49;;;;;;;3.97;2.20;;;;;;;18.52;52.71;98353.09;5053563;28;20676;-72
2022/05/15 07:58:16;;;;;;;5.60;1.93;;;;;;;18.55;52.48;98355.22;5053832;28;20240;-72
2022/05/15 08:00:42;;;;;;;5.47;2.13;;;;;;;18.80;52.17;98346.44;5053587;28;20216;-71
2022/05/15 08:03:11;;;;;;;3.50;2.10;;;;;;;18.74;53.49;98344.81;5053269;28;20687;-71
2022/05/15 08:08:23;;;;;;;7.33;2.40;;;;;;;18.69;55.45;98350.97;5053324;28;20216;-71
2022/05/15 08:10:50;;;;;;;3.80;2.00;;;;;;;19.14;51.30;98355.72;5053063;28;20224;-71
2022/05/15 08:13:20;;;;;;;3.33;2.20;;;;;;;19.37;53.45;98353.34;5053645;28;20209;-71
2022/05/15 08:15:47;;;;;;;4.90;2.17;;;;;;;19.31;50.12;98348.22;5054167;28;20216;-71
2022/05/15 08:23:54;;;;;;;2.73;2.00;;;;;;;19.67;51.84;98353.38;5053554;28;20176;-71
2022/05/15 08:26:21;;;;;;;5.87;2.40;;;;;;;19.64;52.27;98335.03;5053634;28;20185;-71
2022/05/15 08:28:48;;;;;;;3.13;2.10;;;;;;;19.74;51.32;98342.31;5053336;28;20271;-71
2022/05/15 08:31:17;;;;;;;5.80;4.13;;;;;;;19.80;50.56;98335.03;5053298;28;20205;-71
2022/05/15 08:33:43;;;;;;;4.77;3.40;;;;;;;19.84;51.29;98341.53;5053117;28;20297;-71
2022/05/15 08:36:10;;;;;;;2.77;2.00;;;;;;;20.14;51.71;98336.09;5053452;28;20205;-71
2022/05/15 08:38:38;;;;;;;3.97;2.00;;;;;;;20.48;49.29;98337.09;5053087;28;20228;-71
2022/05/15 08:41:13;;;;;;;2.10;1.90;;;;;;;20.34;51.45;98336.84;5053227;28;20206;-71
2022/05/15 08:43:54;;;;;;;5.00;1.97;;;;;;;20.59;49.31;98328.69;5035230;28;20231;-71
2022/05/15 08:46:50;;;;;;;3.07;2.20;;;;;;;20.59;50.83;98334.09;5053736;28;20195;-71
2022/05/15 08:49:38;;;;;;;2.50;1.80;;;;;;;20.59;47.77;98330.56;5018634;28;20225;-71
2022/05/15 08:52:17;;;;;;;3.07;1.60;;;;;;;20.78;48.74;98335.09;5052825;28;20665;-71
2022/05/15 08:55:15;;;;;;;4.67;2.10;;;;;;;20.95;48.04;98337.47;5053135;28;20189;-72
2022/05/15 08:58:04;;;;;;;5.03;1.60;;;;;;;20.96;47.26;98331.78;5053304;28;20233;-72
2022/05/15 09:00:42;;;;;;;3.67;2.00;;;;;;;21.20;46.71;98332.72;5037868;28;20225;-71
2022/05/15 09:03:17;;;;;;;2.50;1.57;;;;;;;21.22;45.49;98333.25;5057170;28;20192;-72
2022/05/15 09:05:54;;;;;;;2.30;1.50;;;;;;;21.28;44.42;98326.72;5057026;28;20215;-72
2022/05/15 09:08:54;;;;;;;3.27;1.90;;;;;;;21.64;43.96;98335.38;5056554;28;20703;-72
2022/05/15 09:11:36;;;;;;;5.10;3.13;;;;;;;21.67;44.44;98324.00;5056708;28;20583;-72
2022/05/15 09:14:13;;;;;;;2.27;1.80;;;;;;;21.61;46.68;98327.84;5057077;28;20201;-72
2022/05/15 09:16:52;;;;;;;3.87;1.90;;;;;;;21.88;45.31;98328.19;5057044;28;20197;-72
2022/05/15 09:19:18;;;;;;;3.80;1.73;;;;;;;21.65;44.11;98326.97;5056804;28;20221;-72
2022/05/15 09:21:44;;;;;;;4.20;2.53;;;;;;;21.84;44.17;98319.81;5056967;28;20209;-72
2022/05/15 09:24:26;;;;;;;4.17;1.90;;;;;;;22.13;47.79;98325.22;5056618;28;20205;-72
2022/05/15 09:26:52;;;;;;;3.50;1.70;;;;;;;22.55;45.22;98328.03;5056745;28;20200;-72
2022/05/15 09:29:26;;;;;;;4.20;2.00;;;;;;;22.44;43.13;98324.63;5057225;28;20240;-72
2022/05/15 09:31:53;;;;;;;2.57;1.90;;;;;;;22.61;41.54;98322.25;5056414;28;20257;-72
2022/05/15 09:34:35;;;;;;;5.63;2.03;;;;;;;22.86;41.95;98326.56;5056204;28;20212;-72
2022/05/15 09:39:46;;;;;;;4.75;2.00;;;;;;;23.03;41.02;98321.47;5055024;28;20288;-72
2022/05/15 09:45:00;;;;;;;3.78;1.77;;;;;;;23.40;42.13;98308.72;5056159;28;20265;-72
2022/05/15 09:47:36;;;;;;;2.28;1.70;;;;;;;23.37;40.55;98303.06;5056159;28;20217;-72
2022/05/15 09:50:03;;;;;;;3.30;1.75;;;;;;;23.38;39.31;98305.50;5056339;28;20196;-71
2022/05/15 09:52:41;;;;;;;3.17;1.77;;;;;;;23.73;38.47;98293.25;5055800;28;20206;-72
2022/05/15 09:55:20;;;;;;;3.88;1.75;;;;;;;23.73;39.07;98298.69;5056202;28;20289;-72
2022/05/15 09:57:59;;;;;;;2.83;1.85;;;;;;;23.77;38.71;98310.56;5055261;28;20239;-72
2022/05/15 10:00:28;;;;;;;5.35;2.00;;;;;;;23.69;38.41;98300.41;5055990;28;20208;-72
2022/05/15 10:03:03;;;;;;;5.07;1.77;;;;;;;23.23;38.42;98302.19;5055476;28;20232;-72
2022/05/15 10:05:32;;;;;;;2.90;2.00;;;;;;;23.45;40.33;98294.25;5055782;28;20204;-72
2022/05/15 10:08:24;;;;;;;3.70;1.80;;;;;;;23.87;37.98;98289.47;5055778;28;20217;-72
2022/05/15 10:11:00;;;;;;;3.53;2.55;;;;;;;23.94;37.68;98286.41;5043145;28;20568;-72
2022/05/15 10:13:34;;;;;;;3.28;1.85;;;;;;;24.11;37.55;98290.13;5054706;28;20188;-72
2022/05/15 10:16:31;;;;;;;4.28;1.90;;;;;;;23.95;38.10;98280.69;5054264;28;20659;-72
2022/05/15 10:19:14;;;;;;;2.38;1.58;;;;;;;23.83;37.45;98285.75;5026568;28;20695;-72
2022/05/15 10:21:42;;;;;;;4.25;1.70;;;;;;;24.03;39.09;98271.84;5053982;28;20250;-72
2022/05/15 10:24:17;;;;;;;5.10;1.88;;;;;;;24.11;39.62;98273.84;5054037;28;20215;-72
2022/05/15 10:27:05;;;;;;;2.95;2.13;;;;;;;24.19;37.65;98275.88;5054004;28;20189;-72
2022/05/15 10:29:40;;;;;;;2.40;1.60;;;;;;;24.16;38.68;98270.25;5054414;28;20212;-72
2022/05/15 10:32:24;;;;;;;3.40;1.80;;;;;;;24.34;38.34;98269.34;5053856;28;20185;-72
2022/05/15 10:34:50;;;;;;;2.78;1.77;;;;;;;24.23;38.67;98274.16;5054471;28;20189;-72
2022/05/15 10:37:17;;;;;;;5.03;1.83;;;;;;;24.32;39.01;98253.34;5036379;28;20224;-72
2022/05/15 10:40:11;;;;;;;2.95;1.52;;;;;;;24.47;38.32;98260.38;5053860;28;20213;-72
2022/05/15 10:42:39;;;;;;;1.80;1.50;;;;;;;24.55;37.47;98257.75;5054302;28;20197;-72
2022/05/15 10:45:25;;;;;;;4.38;2.80;;;;;;;24.91;38.60;98249.66;5053607;28;20661;-72
2022/05/15 10:48:10;;;;;;;5.70;1.70;;;;;;;24.63;37.69;98245.38;5053780;28;20221;-72
2022/05/15 10:50:49;;;;;;;3.67;1.90;;;;;;;24.63;38.60;98248.91;5037533;28;20194;-72
2022/05/15 10:59:28;;;;;;;3.15;1.80;;;;;;;24.13;38.10;98238.22;5053697;28;20274;-73
2022/05/15 11:02:03;;;;;;;2.45;1.60;;;;;;;24.08;38.62;98230.19;5053206;28;20710;-72
2022/05/15 11:04:48;;;;;;;5.97;2.25;;;;;;;24.52;37.06;98241.25;5053515;28;20189;-72
2022/05/15 11:07:44;;;;;;;3.55;1.98;;;;;;;24.86;40.55;98219.84;5053671;28;20221;-72
2022/05/15 11:10:20;;;;;;;2.03;1.50;;;;;;;25.06;40.26;98220.19;5016978;28;1066731;-72
2022/05/15 11:12:46;;;;;;;5.57;1.85;;;;;;;24.67;37.75;98224.63;5038175;28;20189;-72
2022/05/15 11:15:40;;;;;;;3.35;1.80;;;;;;;24.88;38.34;98223.88;5054507;28;20201;-72
2022/05/15 11:18:41;;;;;;;1.80;1.70;;;;;;;24.64;39.66;98214.34;5054271;28;20229;-72
2022/05/15 11:21:13;;;;;;;3.92;1.75;;;;;;;24.59;36.27;98212.56;5054220;28;20243;-72
2022/05/15 11:23:46;;;;;;;3.55;1.70;;;;;;;24.64;37.01;98212.44;5053238;28;20204;-73
2022/05/15 11:26:37;;;;;;;2.75;1.70;;;;;;;24.57;39.31;98206.63;5054402;28;20268;-73
2022/05/15 11:29:12;;;;;;;4.88;1.80;;;;;;;24.57;37.41;98205.78;5054350;28;20237;-72
2022/05/15 11:31:45;;;;;;;3.63;1.90;;;;;;;24.58;37.15;98201.97;5037245;28;20192;-72
2022/05/15 11:34:11;;;;;;;5.05;1.88;;;;;;;24.71;37.90;98201.16;5054313;28;20193;-72
2022/05/15 11:36:41;;;;;;;2.45;1.80;;;;;;;24.63;37.90;98196.44;5054225;28;20212;-72
2022/05/15 11:39:17;;;;;;;4.07;1.63;;;;;;;25.02;37.83;98202.06;5053980;28;20232;-72
2022/05/15 11:41:43;;;;;;;3.15;1.73;;;;;;;25.06;38.39;98203.06;5053874;28;20200;-72
2022/05/15 11:44:37;;;;;;;4.60;1.70;;;;;;;24.87;38.20;98192.34;5054048;28;20209;-72
2022/05/15 11:47:32;;;;;;;2.08;1.73;;;;;;;24.83;37.78;98196.00;5053753;28;20201;-72
2022/05/15 11:50:13;;;;;;;3.08;1.90;;;;;;;24.68;36.84;98180.81;5053881;28;20204;-72
2022/05/15 11:52:41;;;;;;;2.45;1.80;;;;;;;24.98;36.88;98195.63;5053851;28;20201;-73
2022/05/15 11:55:33;;;;;;;4.90;1.80;;;;;;;25.07;38.51;98181.00;5036042;28;20299;-72
2022/05/15 11:58:10;;;;;;;5.75;2.20;;;;;;;24.99;39.12;98186.34;5053347;28;20221;-72
2022/05/15 12:00:42;;;;;;;3.40;2.10;;;;;;;25.05;37.13;98177.78;5036183;28;20248;-72
2022/05/15 12:03:41;;;;;;;3.10;1.75;;;;;;;25.04;34.99;98183.50;5053378;28;20706;-72
2022/05/15 12:06:10;;;;;;;4.28;1.80;;;;;;;24.91;35.83;98174.31;5053426;28;20204;-72
2022/05/15 12:08:39;;;;;;;2.33;1.52;;;;;;;24.99;35.84;98176.28;5035995;28;20221;-72
2022/05/15 12:11:15;;;;;;;4.03;1.60;;;;;;;24.46;35.17;98174.53;5053251;28;20209;-72
2022/05/15 12:13:42;;;;;;;2.03;1.80;;;;;;;24.76;35.94;98171.13;5053328;28;20201;-72